Time;durP1;ratioP1;P1;durP2;ratioP2;P2;SDS_P1;SDS_P2;PMS_P1;PMS_P2;Temp;Humidity;BMP_temperature;BMP_pressure;BME280_temperature;BME280_humidity;BME280_pressure;Samples;Min_cycle;Max_cycle;Signal;HPM_P1;HPM_P2
2022/07/03 00:02:13;;;;;;;3.60;3.30;;;17.10;99.90;;;;;;5013250;28;20296;-40
2022/07/03 00:04:39;;;;;;;3.85;3.40;;;17.10;99.90;;;;;;5028731;28;20178;-40
2022/07/03 00:07:05;;;;;;;4.97;3.50;;;17.10;99.90;;;;;;5030872;28;20214;-37
2022/07/03 00:09:31;;;;;;;5.28;4.10;;;17.00;99.90;;;;;;5046154;28;20213;-41
2022/07/03 00:11:57;;;;;;;5.00;3.38;;;17.00;99.90;;;;;;5029704;28;20187;-39
2022/07/03 00:14:24;;;;;;;4.87;3.80;;;17.00;99.90;;;;;;5029357;28;20189;-34
2022/07/03 00:16:50;;;;;;;6.50;3.92;;;17.00;99.90;;;;;;5012065;28;20198;-40
2022/07/03 00:19:16;;;;;;;6.00;3.58;;;16.90;99.90;;;;;;5034531;28;20215;-40
2022/07/03 00:21:52;;;;;;;4.05;3.67;;;16.90;99.90;;;;;;5030482;28;20206;-39
2022/07/03 00:24:26;;;;;;;4.17;3.70;;;16.80;99.90;;;;;;5012550;28;20182;-41
2022/07/03 00:26:53;;;;;;;5.17;3.30;;;16.80;99.90;;;;;;5024261;28;20207;-39
2022/07/03 00:29:23;;;;;;;4.80;3.70;;;16.70;99.90;;;;;;5014573;28;20217;-40
2022/07/03 00:31:49;;;;;;;6.50;3.90;;;16.70;99.90;;;;;;5030980;28;20201;-41
2022/07/03 00:34:18;;;;;;;4.20;3.80;;;16.70;99.90;;;;;;5031979;28;20182;-41
2022/07/03 00:36:47;;;;;;;3.90;3.60;;;16.70;99.90;;;;;;5050421;28;20204;-39
2022/07/03 00:39:13;;;;;;;4.43;3.90;;;16.80;99.90;;;;;;5016075;28;20193;-40
2022/07/03 00:41:40;;;;;;;4.97;3.57;;;16.80;99.90;;;;;;5048972;28;20211;-39
2022/07/03 00:44:06;;;;;;;5.10;3.30;;;16.80;99.90;;;;;;5038530;28;20178;-41
2022/07/03 00:46:36;;;;;;;4.87;3.40;;;16.70;99.90;;;;;;5055783;28;20202;-39
2022/07/03 00:49:05;;;;;;;4.33;3.13;;;16.70;99.90;;;;;;5027172;28;20201;-39
2022/07/03 00:51:37;;;;;;;4.97;3.33;;;16.60;99.90;;;;;;5037056;28;20202;-38
2022/07/03 00:54:03;;;;;;;3.40;3.10;;;16.60;99.90;;;;;;5019481;28;20178;-40
2022/07/03 00:56:31;;;;;;;4.27;3.23;;;16.50;99.90;;;;;;5052064;28;20206;-39
2022/07/03 00:58:59;;;;;;;4.93;3.30;;;16.50;99.90;;;;;;5019191;28;20201;-41
2022/07/03 01:01:29;;;;;;;4.90;3.30;;;16.50;99.90;;;;;;5035723;28;20205;-38
2022/07/03 01:04:19;;;;;;;3.70;3.40;;;16.50;99.90;;;;;;5018745;28;20186;-39
2022/07/03 01:07:06;;;;;;;4.03;3.63;;;16.50;99.90;;;;;;5035904;28;20198;-41
2022/07/03 01:09:47;;;;;;;5.43;3.73;;;16.40;99.90;;;;;;5052227;28;20178;-38
2022/07/03 01:12:42;;;;;;;3.47;3.17;;;16.40;99.90;;;;;;5035315;28;20209;-40
2022/07/03 01:15:17;;;;;;;4.17;3.30;;;16.30;99.90;;;;;;5018685;28;20207;-39
2022/07/03 01:18:03;;;;;;;4.10;3.70;;;16.30;99.90;;;;;;5018563;28;20619;-36
2022/07/03 01:20:31;;;;;;;3.87;3.43;;;16.30;99.90;;;;;;5018916;28;20214;-39
2022/07/03 01:23:00;;;;;;;3.37;3.03;;;16.20;99.90;;;;;;5035515;28;20198;-42
2022/07/03 01:25:37;;;;;;;3.73;3.30;;;16.20;99.90;;;;;;5051780;28;20405;-39
2022/07/03 01:28:11;;;;;;;3.67;3.03;;;16.20;99.90;;;;;;5035510;28;20187;-37
2022/07/03 01:30:38;;;;;;;3.57;3.27;;;16.10;99.90;;;;;;5036023;28;20174;-40
2022/07/03 01:33:11;;;;;;;3.77;3.47;;;16.10;99.90;;;;;;5035585;28;20187;-39
2022/07/03 01:35:39;;;;;;;4.13;3.80;;;16.00;99.90;;;;;;5051728;28;20194;-36
2022/07/03 01:38:09;;;;;;;4.70;3.73;;;16.00;99.90;;;;;;5002515;28;20268;-36
2022/07/03 01:40:41;;;;;;;3.77;3.23;;;16.00;99.90;;;;;;5018432;28;20356;-37
2022/07/03 01:43:10;;;;;;;3.97;3.20;;;16.00;99.90;;;;;;5035209;28;20240;-39
2022/07/03 01:45:43;;;;;;;3.20;2.90;;;15.90;99.90;;;;;;5035098;28;20270;-37
2022/07/03 01:48:11;;;;;;;4.10;2.97;;;15.90;99.90;;;;;;5035013;28;20194;-39
2022/07/03 01:50:38;;;;;;;3.70;3.03;;;15.90;99.90;;;;;;5036525;28;20189;-39
2022/07/03 01:53:08;;;;;;;5.20;4.00;;;15.90;99.90;;;;;;5034814;28;20179;-40
2022/07/03 01:55:37;;;;;;;3.90;3.47;;;15.90;99.90;;;;;;5030994;28;20207;-37
2022/07/03 01:58:03;;;;;;;4.47;3.90;;;15.80;99.90;;;;;;5033160;28;20210;-39
2022/07/03 02:00:37;;;;;;;4.60;4.13;;;15.80;99.90;;;;;;5031351;28;20238;-41
2022/07/03 02:03:06;;;;;;;5.37;4.30;;;15.80;99.90;;;;;;5015432;28;20175;-40
2022/07/03 02:05:45;;;;;;;5.27;4.50;;;15.70;99.90;;;;;;5014759;28;20245;-38
2022/07/03 02:08:35;;;;;;;4.50;4.10;;;15.70;99.90;;;;;;5015491;28;20228;-37
2022/07/03 02:11:04;;;;;;;4.73;3.97;;;15.70;99.90;;;;;;5031849;28;20177;-39
2022/07/03 02:13:34;;;;;;;4.70;4.10;;;15.70;99.90;;;;;;5031638;28;20354;-38
2022/07/03 02:16:01;;;;;;;5.40;3.93;;;15.80;99.90;;;;;;5047907;28;20216;-39
2022/07/03 02:18:36;;;;;;;4.90;3.73;;;15.70;99.90;;;;;;5048421;28;20190;-35
2022/07/03 02:21:17;;;;;;;4.77;3.60;;;15.70;99.90;;;;;;5031426;28;20213;-38
2022/07/03 02:23:52;;;;;;;3.97;3.40;;;15.70;99.90;;;;;;5015025;28;20174;-39
2022/07/03 02:26:25;;;;;;;4.70;3.97;;;15.60;99.90;;;;;;5031473;28;20190;-38
2022/07/03 02:29:06;;;;;;;4.13;3.73;;;15.50;99.90;;;;;;5031701;28;20183;-39
2022/07/03 02:31:56;;;;;;;6.50;4.00;;;15.50;99.90;;;;;;5047883;28;20183;-37
2022/07/03 02:34:24;;;;;;;3.53;3.23;;;15.50;99.90;;;;;;5032281;28;20207;-41
2022/07/03 02:36:55;;;;;;;7.20;3.70;;;15.50;99.90;;;;;;5047648;28;20325;-39
2022/07/03 02:39:37;;;;;;;3.63;3.27;;;15.50;99.90;;;;;;5048030;28;20178;-40
2022/07/03 02:42:08;;;;;;;3.70;3.40;;;15.50;99.90;;;;;;5032425;28;20252;-38
2022/07/03 02:44:46;;;;;;;4.10;3.70;;;15.50;99.90;;;;;;5047606;28;20182;-38
2022/07/03 02:47:31;;;;;;;6.17;3.60;;;15.40;99.90;;;;;;5014403;28;20651;-40
2022/07/03 02:50:04;;;;;;;4.10;3.67;;;15.40;99.90;;;;;;5031367;28;20182;-36
2022/07/03 02:52:33;;;;;;;4.23;3.50;;;15.30;99.90;;;;;;5014350;28;20182;-37
2022/07/03 02:55:25;;;;;;;3.93;3.57;;;15.20;99.90;;;;;;5047099;28;20210;-38
2022/07/03 02:58:14;;;;;;;4.00;3.33;;;15.20;99.90;;;;;;5030965;28;20183;-36
2022/07/03 03:00:48;;;;;;;4.27;3.43;;;15.20;99.90;;;;;;5030954;28;20225;-38
2022/07/03 03:03:18;;;;;;;4.20;3.87;;;15.20;99.90;;;;;;5030645;28;20182;-38
2022/07/03 03:05:48;;;;;;;4.93;3.87;;;15.20;99.90;;;;;;5029097;28;20206;-39
2022/07/03 03:08:36;;;;;;;4.77;4.37;;;15.00;99.90;;;;;;5047360;28;20186;-38
2022/07/03 03:11:15;;;;;;;6.13;4.10;;;15.00;99.90;;;;;;5030648;28;20236;-41
2022/07/03 03:13:49;;;;;;;4.87;3.70;;;15.00;99.90;;;;;;5032089;28;20257;-35
2022/07/03 03:16:15;;;;;;;6.03;4.13;;;15.00;99.90;;;;;;5031283;28;20222;-38
2022/07/03 03:18:41;;;;;;;4.70;4.30;;;15.00;99.90;;;;;;5031876;28;20213;-37
2022/07/03 03:21:12;;;;;;;4.43;4.03;;;15.00;99.90;;;;;;5030626;28;20218;-38
2022/07/03 03:23:51;;;;;;;6.33;3.60;;;15.00;99.90;;;;;;5031636;28;20233;-36
2022/07/03 03:26:31;;;;;;;4.37;3.80;;;15.10;99.90;;;;;;5032149;28;20190;-37
2022/07/03 03:28:59;;;;;;;4.17;3.77;;;15.10;99.90;;;;;;5013780;28;20186;-35
2022/07/03 03:31:26;;;;;;;5.90;3.83;;;15.10;99.90;;;;;;5031816;28;20181;-37
2022/07/03 03:33:53;;;;;;;4.23;3.60;;;15.20;99.90;;;;;;5029891;28;20183;-38
2022/07/03 03:36:20;;;;;;;5.77;4.20;;;15.20;99.90;;;;;;5031575;28;20217;-38
2022/07/03 03:38:47;;;;;;;4.40;3.83;;;15.20;99.90;;;;;;5031941;28;20170;-37
2022/07/03 03:41:13;;;;;;;5.67;4.10;;;15.20;99.90;;;;;;5029880;28;20265;-38
2022/07/03 03:43:39;;;;;;;4.30;3.80;;;15.20;99.90;;;;;;5013472;28;20202;-37
2022/07/03 03:46:05;;;;;;;6.03;3.90;;;15.20;99.90;;;;;;5046486;28;20277;-39
2022/07/03 03:48:33;;;;;;;3.53;3.23;;;15.10;99.90;;;;;;5013733;28;20229;-39
2022/07/03 03:51:00;;;;;;;5.33;3.60;;;15.10;99.90;;;;;;5046610;28;20187;-34
2022/07/03 03:53:27;;;;;;;4.20;3.80;;;15.00;99.90;;;;;;5029620;28;20179;-42
2022/07/03 03:56:10;;;;;;;3.60;3.30;;;15.00;99.90;;;;;;5030619;28;20191;-37
2022/07/03 03:58:38;;;;;;;6.70;3.97;;;15.00;99.90;;;;;;5013507;28;20187;-38
2022/07/03 04:01:06;;;;;;;6.20;3.47;;;15.00;99.90;;;;;;5013379;28;20268;-41
2022/07/03 04:03:33;;;;;;;3.57;3.27;;;15.00;99.90;;;;;;5029548;28;20183;-39
2022/07/03 04:05:59;;;;;;;4.50;3.63;;;15.00;99.90;;;;;;5029486;28;20198;-38
2022/07/03 04:08:27;;;;;;;3.50;3.20;;;15.00;99.90;;;;;;5029245;28;20178;-38
2022/07/03 04:10:53;;;;;;;5.63;3.20;;;14.90;99.90;;;;;;5029809;28;20183;-38
2022/07/03 04:13:19;;;;;;;7.20;3.00;;;14.90;99.90;;;;;;5029530;28;20181;-36
2022/07/03 04:15:45;;;;;;;3.40;3.10;;;14.80;99.90;;;;;;5029394;28;20199;-35
2022/07/03 04:18:11;;;;;;;6.00;3.33;;;14.80;99.90;;;;;;5029099;28;20191;-39
2022/07/03 04:20:38;;;;;;;5.53;3.40;;;14.80;99.90;;;;;;5012905;28;20295;-38
2022/07/03 04:23:04;;;;;;;3.50;3.20;;;14.90;99.90;;;;;;5012268;28;20195;-36
2022/07/03 04:25:30;;;;;;;4.00;3.60;;;14.90;99.90;;;;;;5045807;28;20195;-37
2022/07/03 04:27:56;;;;;;;3.70;3.27;;;15.00;99.90;;;;;;5012878;28;20178;-38
2022/07/03 04:30:22;;;;;;;5.57;3.57;;;15.00;99.90;;;;;;5029411;28;20186;-34
2022/07/03 04:32:49;;;;;;;3.87;3.30;;;15.10;99.90;;;;;;5029173;28;20232;-36
2022/07/03 04:35:15;;;;;;;6.47;3.40;;;15.10;99.90;;;;;;5029043;28;20202;-40
2022/07/03 04:37:42;;;;;;;3.80;3.40;;;15.20;99.90;;;;;;5030575;28;20175;-35
2022/07/03 04:40:09;;;;;;;4.30;3.40;;;15.20;99.90;;;;;;5029465;28;20245;-36
2022/07/03 04:42:35;;;;;;;5.60;3.60;;;15.20;99.90;;;;;;5029160;28;20182;-39
2022/07/03 04:45:02;;;;;;;4.67;3.37;;;15.30;99.90;;;;;;5030194;28;20199;-34
2022/07/03 04:47:28;;;;;;;4.43;3.30;;;15.30;99.90;;;;;;5012257;28;20179;-34
2022/07/03 04:49:54;;;;;;;3.70;3.40;;;15.40;99.90;;;;;;5045421;28;20188;-37
2022/07/03 04:52:20;;;;;;;4.80;3.43;;;15.50;99.90;;;;;;5045912;28;20174;-37
2022/07/03 04:54:45;;;;;;;3.80;3.50;;;15.60;99.90;;;;;;5028942;28;20193;-38
2022/07/03 04:57:11;;;;;;;6.17;3.37;;;15.70;99.90;;;;;;5030465;28;20186;-36
2022/07/03 04:59:37;;;;;;;3.53;3.17;;;15.80;99.90;;;;;;5029201;28;20179;-36
2022/07/03 05:02:03;;;;;;;5.50;3.40;;;15.80;99.90;;;;;;5030227;28;20199;-35
2022/07/03 05:04:29;;;;;;;3.80;3.30;;;16.00;99.90;;;;;;5045529;28;20179;-34
2022/07/03 05:06:55;;;;;;;6.17;3.23;;;16.10;99.90;;;;;;5045267;28;20203;-35
2022/07/03 05:09:21;;;;;;;3.80;3.10;;;16.10;99.90;;;;;;5030515;28;20273;-35
2022/07/03 05:11:46;;;;;;;3.80;2.60;;;16.20;99.90;;;;;;5030099;28;20183;-35
2022/07/03 05:14:12;;;;;;;4.23;3.37;;;16.30;99.90;;;;;;5012385;28;20265;-36
2022/07/03 05:16:38;;;;;;;3.10;2.80;;;16.40;99.90;;;;;;5030297;28;20297;-37
2022/07/03 05:19:05;;;;;;;6.17;3.30;;;16.50;99.90;;;;;;5028855;28;20225;-36
2022/07/03 05:21:31;;;;;;;3.50;3.20;;;16.60;99.90;;;;;;5028882;28;20206;-35
2022/07/03 05:23:57;;;;;;;4.40;2.90;;;16.70;99.90;;;;;;5029971;28;20809;-38
2022/07/03 05:26:23;;;;;;;3.30;2.80;;;16.80;99.90;;;;;;5012639;28;20285;-36
2022/07/03 05:28:49;;;;;;;2.80;2.60;;;16.90;99.90;;;;;;5045612;28;20282;-36
2022/07/03 05:31:15;;;;;;;5.90;2.80;;;17.00;99.90;;;;;;5016560;28;20261;-36
2022/07/03 05:33:41;;;;;;;3.00;2.70;;;17.10;99.90;;;;;;5015643;28;20208;-39
2022/07/03 05:36:07;;;;;;;2.70;2.50;;;17.30;99.90;;;;;;5048873;28;20207;-35
2022/07/03 05:41:18;;;;;;;3.63;2.67;;;17.40;99.90;;;;;;5032214;28;20214;-37
2022/07/03 05:43:45;;;;;;;2.83;2.53;;;17.60;99.90;;;;;;5031494;28;20182;-41
2022/07/03 05:46:11;;;;;;;2.63;2.42;;;17.70;99.90;;;;;;5031851;28;20212;-39
2022/07/03 05:48:37;;;;;;;2.30;2.10;;;17.80;99.90;;;;;;5016184;28;20197;-39
2022/07/03 05:51:03;;;;;;;2.58;2.38;;;17.90;99.90;;;;;;5045390;28;20187;-35
2022/07/03 05:53:29;;;;;;;2.75;2.10;;;18.10;99.90;;;;;;5028196;28;20281;-40
2022/07/03 05:55:57;;;;;;;2.78;2.20;;;18.30;99.90;;;;;;5032625;28;20194;-40
2022/07/03 05:58:23;;;;;;;2.63;2.40;;;18.40;99.90;;;;;;5031865;28;20186;-38
2022/07/03 06:00:49;;;;;;;5.32;2.40;;;18.60;99.90;;;;;;5033084;28;20207;-37
2022/07/03 06:03:15;;;;;;;3.00;2.67;;;18.70;99.90;;;;;;5015479;28;20257;-38
2022/07/03 06:05:41;;;;;;;3.05;2.55;;;18.80;99.90;;;;;;5031459;28;20348;-36
2022/07/03 06:08:07;;;;;;;3.28;2.50;;;18.90;99.90;;;;;;5015346;28;20175;-35
2022/07/03 06:10:33;;;;;;;2.65;2.45;;;19.00;99.90;;;;;;5014948;28;20190;-38
2022/07/03 06:12:59;;;;;;;2.67;2.47;;;19.00;99.90;;;;;;5014843;28;20182;-38
2022/07/03 06:15:26;;;;;;;2.50;2.25;;;19.20;99.90;;;;;;5030381;28;20203;-36
2022/07/03 06:17:52;;;;;;;4.40;2.10;;;19.30;99.90;;;;;;5032678;28;20660;-35
2022/07/03 06:20:18;;;;;;;2.30;2.05;;;19.50;99.90;;;;;;5047913;28;20189;-38
2022/07/03 06:22:44;;;;;;;2.65;2.45;;;19.70;99.90;;;;;;5031194;28;20179;-36
2022/07/03 06:25:10;;;;;;;2.50;1.95;;;19.90;99.90;;;;;;5014344;28;20194;-37
2022/07/03 06:27:36;;;;;;;2.38;2.17;;;20.00;99.90;;;;;;5048161;28;20182;-37
2022/07/03 06:30:02;;;;;;;2.50;2.30;;;20.20;99.90;;;;;;5014558;28;20187;-38
2022/07/03 06:32:28;;;;;;;4.70;2.35;;;20.40;99.90;;;;;;5014693;28;20200;-38
2022/07/03 06:34:54;;;;;;;3.53;1.92;;;20.60;99.90;;;;;;5031787;28;20640;-36
2022/07/03 06:37:21;;;;;;;1.90;1.67;;;20.70;99.90;;;;;;5029930;28;20249;-40
2022/07/03 06:39:47;;;;;;;2.03;1.73;;;20.80;99.90;;;;;;5030965;28;20181;-38
2022/07/03 06:42:13;;;;;;;1.98;1.42;;;21.00;99.90;;;;;;5012413;28;20206;-34
2022/07/03 06:44:40;;;;;;;1.67;1.58;;;21.20;99.90;;;;;;5013887;28;20179;-37
2022/07/03 06:47:06;;;;;;;2.78;1.90;;;21.20;99.90;;;;;;5047116;28;20342;-36
2022/07/03 06:49:33;;;;;;;3.35;1.70;;;21.30;99.90;;;;;;5014129;28;20182;-38
2022/07/03 06:51:59;;;;;;;2.50;1.70;;;21.40;99.90;;;;;;5014460;28;20206;-34
2022/07/03 06:54:25;;;;;;;2.03;1.60;;;21.60;99.90;;;;;;5014550;28;20224;-40
2022/07/03 06:56:51;;;;;;;1.60;1.50;;;21.70;99.90;;;;;;5032116;28;20199;-41
2022/07/03 06:59:17;;;;;;;5.47;1.88;;;21.90;99.90;;;;;;5013870;28;20178;-41
2022/07/03 07:01:43;;;;;;;1.67;1.58;;;22.00;99.90;;;;;;5031748;28;20234;-41
2022/07/03 07:04:09;;;;;;;2.50;1.73;;;22.00;99.90;;;;;;5031379;28;20179;-41
2022/07/03 07:06:35;;;;;;;2.10;1.50;;;22.20;99.90;;;;;;5014268;28;20220;-41
2022/07/03 07:09:01;;;;;;;2.17;1.60;;;22.30;99.90;;;;;;5014166;28;20201;-41
2022/07/03 07:11:26;;;;;;;1.70;1.60;;;22.30;99.90;;;;;;5031722;28;20213;-41
2022/07/03 07:13:52;;;;;;;2.15;1.40;;;22.40;99.90;;;;;;5031021;28;20209;-41
2022/07/03 07:16:18;;;;;;;1.80;1.40;;;22.60;99.90;;;;;;5046746;28;20213;-41
2022/07/03 07:18:44;;;;;;;2.60;1.40;;;22.80;99.90;;;;;;5013411;28;20191;-41
2022/07/03 07:21:10;;;;;;;4.18;1.65;;;22.90;99.90;;;;;;5032403;28;20268;-41
2022/07/03 07:23:36;;;;;;;2.80;1.42;;;23.00;99.90;;;;;;5026471;28;20179;-41
2022/07/03 07:26:03;;;;;;;1.65;1.50;;;23.10;99.90;;;;;;5011010;28;20222;-40
2022/07/03 07:28:30;;;;;;;1.52;1.42;;;23.10;99.90;;;;;;5012287;28;20709;-40
2022/07/03 07:30:57;;;;;;;1.40;1.30;;;23.20;99.90;;;;;;5012868;28;20208;-41
2022/07/03 07:33:23;;;;;;;1.83;1.58;;;23.30;99.90;;;;;;5013057;28;20186;-41
2022/07/03 07:35:49;;;;;;;2.40;1.60;;;23.40;99.90;;;;;;5029223;28;20272;-41
2022/07/03 07:38:16;;;;;;;1.55;1.35;;;23.60;99.90;;;;;;5036909;28;20174;-41
2022/07/03 07:40:42;;;;;;;2.13;1.25;;;23.80;99.90;;;;;;5021023;28;20195;-41
2022/07/03 07:43:08;;;;;;;2.45;1.33;;;23.90;99.90;;;;;;5037637;28;20174;-41
2022/07/03 07:45:34;;;;;;;1.30;1.20;;;24.00;99.90;;;;;;5016594;28;20210;-42
2022/07/03 07:48:00;;;;;;;2.45;1.40;;;24.10;99.90;;;;;;5013492;28;20190;-41
2022/07/03 07:50:26;;;;;;;1.92;1.20;;;24.30;99.90;;;;;;5013240;28;20263;-42
2022/07/03 07:52:52;;;;;;;1.27;1.17;;;24.40;99.90;;;;;;5050666;28;20252;-41
2022/07/03 07:55:18;;;;;;;2.22;1.20;;;24.60;99.90;;;;;;5021945;28;20283;-41
2022/07/03 07:57:45;;;;;;;1.30;1.20;;;24.70;99.90;;;;;;5028011;28;20266;-41
2022/07/03 08:00:15;;;;;;;1.42;1.23;;;24.80;99.90;;;;;;5003461;28;20247;-41
2022/07/03 08:05:35;;;;;;;1.50;1.20;;;24.80;99.90;;;;;;5029014;28;20195;-41
2022/07/03 08:08:19;;;;;;;1.05;0.98;;;24.80;99.90;;;;;;5020130;28;20205;-41
2022/07/03 08:10:50;;;;;;;2.08;1.25;;;24.90;99.90;;;;;;5049151;28;20232;-42
2022/07/03 08:13:18;;;;;;;1.40;1.30;;;25.00;99.90;;;;;;5026944;28;20183;-42
2022/07/03 08:15:47;;;;;;;1.58;0.85;;;25.10;99.90;;;;;;5014088;28;20205;-42
2022/07/03 08:18:13;;;;;;;1.00;0.90;;;25.10;99.90;;;;;;5032322;28;20183;-42
2022/07/03 08:20:40;;;;;;;0.90;0.90;;;25.40;99.90;;;;;;5022680;28;20213;-41
2022/07/03 08:23:06;;;;;;;1.20;1.10;;;25.40;99.90;;;;;;5012306;28;20273;-42
2022/07/03 08:25:34;;;;;;;4.40;1.00;;;25.50;99.90;;;;;;5031330;28;20205;-42
2022/07/03 08:28:02;;;;;;;1.63;0.98;;;25.60;99.90;;;;;;5021161;28;20265;-42
2022/07/03 08:30:29;;;;;;;2.20;1.02;;;25.70;99.90;;;;;;5020253;28;20303;-42
2022/07/03 08:32:59;;;;;;;3.45;0.90;;;25.90;99.90;;;;;;5032229;28;20173;-42
2022/07/03 08:35:26;;;;;;;0.77;0.77;;;26.00;99.90;;;;;;5013964;28;20194;-41
2022/07/03 08:37:53;;;;;;;2.03;0.85;;;26.10;99.90;;;;;;5037254;28;20170;-42
2022/07/03 08:40:20;;;;;;;0.90;0.85;;;26.30;99.90;;;;;;5022406;28;20166;-42
2022/07/03 08:42:52;;;;;;;0.90;0.90;;;26.40;99.90;;;;;;5037597;28;20166;-42
2022/07/03 08:45:20;;;;;;;1.00;0.90;;;26.40;99.90;;;;;;5030466;28;20198;-42
2022/07/03 08:47:47;;;;;;;2.80;0.93;;;26.40;99.90;;;;;;5012253;28;20268;-42
2022/07/03 08:50:15;;;;;;;1.15;0.90;;;26.40;99.90;;;;;;5029400;28;20175;-42
2022/07/03 08:52:42;;;;;;;1.98;0.80;;;26.60;99.90;;;;;;5011851;28;20183;-42
2022/07/03 08:55:09;;;;;;;0.90;0.90;;;26.70;99.90;;;;;;5045338;28;20206;-42
2022/07/03 08:57:40;;;;;;;1.33;0.95;;;26.90;99.90;;;;;;5028579;28;20183;-42
2022/07/03 09:00:10;;;;;;;0.93;0.88;;;26.90;99.90;;;;;;5025707;28;20290;-42
2022/07/03 09:02:36;;;;;;;1.30;0.80;;;26.90;99.90;;;;;;5011417;28;20198;-42
2022/07/03 09:05:02;;;;;;;0.80;0.80;;;27.00;99.90;;;;;;5020951;28;20181;-42
2022/07/03 09:07:34;;;;;;;1.50;0.80;;;27.10;99.90;;;;;;5029720;28;20182;-40
2022/07/03 09:10:00;;;;;;;1.25;0.90;;;27.20;99.90;;;;;;5023167;28;20269;-42
2022/07/03 09:12:29;;;;;;;1.08;0.90;;;27.30;99.90;;;;;;5024455;28;20200;-43
2022/07/03 09:14:55;;;;;;;1.80;0.90;;;27.40;99.90;;;;;;5042995;28;20205;-42
2022/07/03 09:17:23;;;;;;;1.95;0.90;;;27.40;99.90;;;;;;5020336;28;20175;-42
2022/07/03 09:19:49;;;;;;;0.80;0.80;;;27.20;98.80;;;;;;5033939;28;20193;-43
2022/07/03 09:22:21;;;;;;;0.85;0.85;;;27.30;98.30;;;;;;5033777;28;20218;-42
2022/07/03 09:24:49;;;;;;;2.03;0.85;;;27.40;99.90;;;;;;4996328;28;20175;-41
2022/07/03 09:27:21;;;;;;;2.38;0.70;;;27.50;97.80;;;;;;5015578;28;20315;-43
2022/07/03 09:30:01;;;;;;;1.42;1.00;;;27.60;96.90;;;;;;5012611;28;20234;-41
2022/07/03 09:32:44;;;;;;;1.77;0.85;;;27.50;97.40;;;;;;5045779;28;20270;-42
2022/07/03 09:35:36;;;;;;;2.40;1.30;;;27.60;98.70;;;;;;5007484;28;20249;-42
2022/07/03 09:38:04;;;;;;;2.13;1.10;;;27.90;98.30;;;;;;5014044;28;20289;-42
2022/07/03 09:40:49;;;;;;;0.73;0.73;;;28.00;97.50;;;;;;5015686;28;20193;-42
2022/07/03 09:43:21;;;;;;;0.90;0.80;;;27.90;97.20;;;;;;5033222;28;20178;-43
2022/07/03 09:46:01;;;;;;;1.40;0.80;;;28.00;98.00;;;;;;5038540;28;20202;-41
2022/07/03 09:48:31;;;;;;;0.85;0.80;;;28.00;97.50;;;;;;5022905;28;20190;-42
2022/07/03 09:51:28;;;;;;;1.55;0.82;;;28.20;99.00;;;;;;5038928;28;20682;-43
2022/07/03 09:53:58;;;;;;;1.83;0.90;;;28.40;97.10;;;;;;5015887;28;20273;-42
2022/07/03 09:56:27;;;;;;;1.13;0.70;;;28.60;98.40;;;;;;5013928;28;20298;-42
2022/07/03 09:59:09;;;;;;;0.90;0.80;;;28.90;97.60;;;;;;5032321;28;20670;-43
2022/07/03 10:01:37;;;;;;;1.08;1.00;;;28.80;97.30;;;;;;5031706;28;20229;-43
2022/07/03 10:04:16;;;;;;;0.80;0.80;;;29.00;98.00;;;;;;5015063;28;20178;-42
2022/07/03 10:06:53;;;;;;;3.35;1.67;;;28.80;96.60;;;;;;5016898;28;20212;-43
2022/07/03 10:09:26;;;;;;;1.10;0.98;;;28.60;97.30;;;;;;5015571;28;20175;-43
2022/07/03 10:11:53;;;;;;;1.10;0.90;;;28.60;96.80;;;;;;5031671;28;20182;-42
2022/07/03 10:14:22;;;;;;;1.50;0.90;;;28.60;97.40;;;;;;5033082;28;20178;-42
2022/07/03 10:16:48;;;;;;;0.85;0.85;;;28.60;95.60;;;;;;5030642;28;20241;-43
2022/07/03 10:19:18;;;;;;;1.13;0.90;;;28.70;95.90;;;;;;5015157;28;20277;-43
2022/07/03 10:21:52;;;;;;;1.90;0.93;;;28.60;95.80;;;;;;5031441;28;20234;-42
2022/07/03 10:24:21;;;;;;;2.38;0.80;;;28.50;95.20;;;;;;5015206;28;20195;-42
2022/07/03 10:26:48;;;;;;;1.02;0.80;;;28.70;96.20;;;;;;5014377;28;20191;-42
2022/07/03 10:29:15;;;;;;;2.08;0.70;;;29.00;96.80;;;;;;5014983;28;20261;-42
2022/07/03 10:31:48;;;;;;;0.82;0.82;;;29.10;94.10;;;;;;5013843;28;20257;-42
2022/07/03 10:34:25;;;;;;;1.17;0.80;;;29.40;96.60;;;;;;4998693;28;20237;-43
2022/07/03 10:37:02;;;;;;;1.10;0.88;;;29.50;93.50;;;;;;5013129;28;20206;-40
2022/07/03 10:39:52;;;;;;;1.00;0.80;;;29.80;93.70;;;;;;5043081;28;20174;-41
2022/07/03 10:45:18;;;;;;;2.75;0.80;;;29.50;94.00;;;;;;5038033;28;20199;-43
2022/07/03 10:47:50;;;;;;;1.08;0.88;;;29.30;92.90;;;;;;5005684;28;20179;-42
2022/07/03 10:50:19;;;;;;;0.77;0.70;;;29.40;91.40;;;;;;5030759;28;20189;-42
2022/07/03 10:52:45;;;;;;;0.85;0.80;;;29.80;93.10;;;;;;5011244;28;20194;-43
2022/07/03 10:55:13;;;;;;;0.70;0.70;;;29.80;91.70;;;;;;5013593;28;20204;-43
2022/07/03 10:57:41;;;;;;;1.00;0.90;;;29.90;91.70;;;;;;5014323;28;20213;-43
2022/07/03 11:00:15;;;;;;;0.85;0.60;;;30.10;92.10;;;;;;5011639;28;20216;-42
2022/07/03 11:02:47;;;;;;;0.63;0.63;;;30.00;91.90;;;;;;5010827;28;20221;-42
2022/07/03 11:05:25;;;;;;;0.70;0.70;;;30.20;92.20;;;;;;5026658;28;20204;-42
2022/07/03 11:07:53;;;;;;;0.70;0.70;;;30.40;91.40;;;;;;5076687;22;20182;-36
2022/07/03 11:10:18;;;;;;;0.95;0.70;;;30.30;88.20;;;;;;5058956;28;20256;-36
2022/07/03 11:12:56;;;;;;;1.35;0.90;;;30.40;90.20;;;;;;5067526;28;20257;-36
2022/07/03 11:15:34;;;;;;;0.77;0.70;;;30.70;90.00;;;;;;5052985;28;20201;-35
2022/07/03 11:18:12;;;;;;;0.90;0.90;;;30.60;89.20;;;;;;5057213;28;20278;-36
2022/07/03 11:20:44;;;;;;;2.20;0.77;;;30.50;90.80;;;;;;5074646;28;20204;-35
2022/07/03 11:23:13;;;;;;;0.70;0.70;;;30.30;90.80;;;;;;5074244;28;20222;-35
2022/07/03 11:25:49;;;;;;;0.80;0.70;;;30.30;90.40;;;;;;5073746;28;20189;-36
2022/07/03 11:28:34;;;;;;;1.67;0.77;;;30.60;90.80;;;;;;5056649;28;20193;-35
2022/07/03 11:31:09;;;;;;;0.93;0.63;;;31.00;88.50;;;;;;5057322;28;20194;-35
2022/07/03 11:34:00;;;;;;;1.30;0.70;;;30.90;84.90;;;;;;5092036;28;20203;-37
2022/07/03 11:36:33;;;;;;;1.27;0.85;;;30.70;88.60;;;;;;5045447;28;20211;-35
2022/07/03 11:38:58;;;;;;;0.70;0.60;;;30.80;89.50;;;;;;5055959;28;20299;-35
2022/07/03 11:41:43;;;;;;;0.82;0.65;;;30.90;89.70;;;;;;5073579;28;20295;-35
2022/07/03 11:44:13;;;;;;;1.10;0.90;;;31.10;88.60;;;;;;5073885;28;20181;-35
2022/07/03 11:46:39;;;;;;;2.30;0.85;;;31.20;87.30;;;;;;5056735;28;20180;-35
2022/07/03 11:49:10;;;;;;;1.30;0.80;;;31.30;87.80;;;;;;5073406;28;20211;-35
2022/07/03 11:51:37;;;;;;;1.52;0.90;;;31.30;88.80;;;;;;5057407;28;20212;-36
2022/07/03 11:54:04;;;;;;;1.15;0.80;;;31.30;86.00;;;;;;5073377;28;20181;-35
2022/07/03 11:56:30;;;;;;;1.80;0.98;;;31.20;86.20;;;;;;5092180;28;20187;-35
2022/07/03 11:58:58;;;;;;;2.15;0.77;;;31.30;88.10;;;;;;5057119;28;20287;-35
2022/07/03 12:01:27;;;;;;;0.95;0.70;;;31.20;86.90;;;;;;5056860;28;20208;-35
2022/07/03 12:04:12;;;;;;;0.70;0.70;;;31.20;86.70;;;;;;5056675;28;20168;-35
2022/07/03 12:06:50;;;;;;;1.48;0.75;;;31.00;82.50;;;;;;5056979;28;20183;-35
2022/07/03 12:09:18;;;;;;;1.65;0.80;;;31.10;86.60;;;;;;5073732;28;20260;-35
2022/07/03 12:11:57;;;;;;;1.80;0.88;;;31.50;89.20;;;;;;5073675;28;20176;-35
2022/07/03 12:14:43;;;;;;;1.08;0.88;;;31.80;85.20;;;;;;5073467;28;20180;-36
2022/07/03 12:17:16;;;;;;;2.17;0.98;;;31.90;85.20;;;;;;5057342;28;20181;-35
2022/07/03 12:19:53;;;;;;;1.38;1.02;;;32.00;90.50;;;;;;5057269;28;20220;-35
2022/07/03 12:22:37;;;;;;;1.42;0.95;;;31.80;87.10;;;;;;5073801;28;20204;-36
2022/07/03 12:25:08;;;;;;;0.93;0.80;;;31.90;85.50;;;;;;5073741;28;20173;-36
2022/07/03 12:27:38;;;;;;;0.80;0.77;;;31.80;82.80;;;;;;5073756;28;20172;-35
2022/07/03 12:30:06;;;;;;;2.95;0.95;;;31.90;84.00;;;;;;5073703;28;20199;-35
2022/07/03 12:32:32;;;;;;;0.80;0.75;;;32.10;84.20;;;;;;5073750;28;20185;-37
2022/07/03 12:34:59;;;;;;;1.83;0.80;;;32.30;87.00;;;;;;5092402;28;20274;-35
2022/07/03 12:37:51;;;;;;;1.10;0.80;;;32.50;85.80;;;;;;5074697;28;20218;-36
2022/07/03 12:40:18;;;;;;;1.65;0.90;;;32.80;82.30;;;;;;5054054;28;20265;-35
2022/07/03 12:42:49;;;;;;;1.27;0.90;;;33.00;88.20;;;;;;5057786;28;20207;-37
2022/07/03 12:45:17;;;;;;;2.25;0.98;;;32.90;81.60;;;;;;5057267;28;20177;-35
2022/07/03 12:47:44;;;;;;;1.17;0.95;;;32.90;83.30;;;;;;5056295;28;20180;-38
2022/07/03 12:50:10;;;;;;;1.70;1.27;;;32.60;81.50;;;;;;5050618;28;20197;-35
2022/07/03 12:52:53;;;;;;;1.55;1.00;;;32.30;81.30;;;;;;5070318;28;20186;-36
2022/07/03 12:55:29;;;;;;;2.45;1.08;;;31.90;80.70;;;;;;5069888;28;20177;-35
2022/07/03 13:01:02;;;;;;;1.33;1.00;;;31.70;84.90;;;;;;5073575;28;20227;-35
2022/07/03 13:03:30;;;;;;;1.20;1.05;;;31.90;81.30;;;;;;5056868;28;20263;-35
2022/07/03 13:05:56;;;;;;;1.85;1.10;;;32.00;83.50;;;;;;5057004;28;20212;-35
2022/07/03 13:08:22;;;;;;;1.55;1.08;;;32.20;82.70;;;;;;5073400;28;20208;-35
2022/07/03 13:10:56;;;;;;;1.17;1.00;;;32.00;81.80;;;;;;5073733;28;20234;-35
2022/07/03 13:13:21;;;;;;;1.10;0.88;;;32.00;83.40;;;;;;5057155;28;20180;-35
2022/07/03 13:15:47;;;;;;;3.40;1.20;;;31.90;81.10;;;;;;5056215;28;20188;-35